Latest Coastal Weather Observations for Creal Reef

IDQ60701

Issued at 7:06 pm EST Tuesday 3 March 2015 (issued every 10 minutes, with the page automatically refreshed every 10 minutes)

About coastal observations | Map of coastal stations | Coastal observations for QLD | Marine services | Other Formats
Station Details ID: 200736 Name: CREAL REEF Lat: -20.53 Lon: 150.38 Height: 1.7 m
Data from the previous 72 hours. | See also: Recent months for locations in Queensland
Date/Time
EST
Temp

°C
Wind Pressure Rain
since 9am
mm
Weather Cloud Vis
km
Sea
Height
m
Swell
Dir
 
Speed
knots
Gust
knots
hPa Trend Height
m
Period
s
Dir
03/07:00pm 27.2 SSE 21 25 1010.2 - - - - - - - - -
03/06:30pm 27.3 SE 20 24 1009.8 - - - - - - - - -
03/06:20pm 27.3 SSE 21 23 1009.6 - - - - - - - - -
03/06:00pm 27.3 SSE 20 24 1009.7 - - - - - - - - -
03/05:30pm 27.3 SE 20 23 1009.3 - - - - - - - - -
03/05:20pm 27.3 SE 20 23 1009.2 - - - - - - - - -
03/05:00pm 27.3 SSE 21 24 1009.0 - - - - - - - - -
03/04:30pm 27.4 SSE 20 23 1009.1 - - - - - - - - -
03/04:20pm 27.5 SSE 22 21 1009.1 - - - - - - - - -
03/04:00pm 27.5 SSE 21 24 1009.1 - - - - - - - - -
03/03:30pm 27.6 SSE 22 25 1009.3 - - - - - - - - -
03/03:20pm 27.5 SSE 21 25 1009.2 - - - - - - - - -
03/03:00pm 27.4 SSE 21 25 1009.3 - - - - - - - - -
03/02:30pm 27.5 SSE 20 24 1009.5 - - - - - - - - -
03/02:20pm 27.5 SSE 19 21 1009.5 - - - - - - - - -
03/02:00pm 27.5 SSE 19 24 1009.6 - - - - - - - - -
03/01:30pm 27.4 SSE 17 23 1009.8 - - - - - - - - -
03/01:20pm 27.3 SSE 17 21 1009.9 - - - - - - - - -
03/01:00pm 27.3 SSE 17 22 1010.2 - - - - - - - - -
03/12:30pm 27.3 SSE 18 22 1010.7 - - - - - - - - -
03/12:20pm 27.3 SSE 17 22 1010.7 - - - - - - - - -
03/12:00pm 27.4 SSE 17 22 1011.0 - - - - - - - - -
03/11:30am 27.3 SSE 18 22 1011.3 - - - - - - - - -
03/11:20am 27.4 SSE 17 19 1011.4 - - - - - - - - -
03/11:00am 27.5 SSE 18 21 1011.5 - - - - - - - - -
03/10:30am 27.4 SSE 15 19 1011.6 - - - - - - - - -
03/10:20am 27.4 SSE 17 19 1011.5 - - - - - - - - -
03/10:00am 27.4 SSE 17 21 1011.7 - - - - - - - - -
03/09:30am 27.4 SSE 19 22 1011.5 - - - - - - - - -
03/09:20am 27.4 SSE 18 - 1011.3 - - - - - - - - -
03/09:00am 27.2 SE 16 21 1011.4 - - - - - - - - -
03/08:30am 26.8 SSE 16 19 1011.3 - - - - - - - - -
03/08:20am 27.2 SE 16 - 1011.2 - - - - - - - - -
03/08:00am 27.3 SSE 17 21 1011.2 - - - - - - - - -
03/07:30am 27.2 SSE 19 22 1011.0 - - - - - - - - -
03/07:20am 27.0 SE 18 - 1010.7 - - - - - - - - -
03/07:00am 26.9 SE 19 22 1010.7 - - - - - - - - -
03/06:30am 27.0 SE 19 22 1010.3 - - - - - - - - -
03/06:20am 26.8 SE 18 - 1010.2 - - - - - - - - -
03/06:00am 26.7 SE 18 20 1010.1 - - - - - - - - -
03/05:30am 26.6 SE 20 23 1009.8 - - - - - - - - -
03/05:20am 26.7 SE 20 - 1009.7 - - - - - - - - -
03/05:00am 26.8 SE 19 22 1009.7 - - - - - - - - -
03/04:30am 26.6 SE 20 23 1009.5 - - - - - - - - -
03/04:20am 26.5 SE 20 - 1009.4 - - - - - - - - -
03/04:00am 26.5 SE 20 23 1009.3 - - - - - - - - -
03/03:30am 26.5 ESE 17 19 1009.3 - - - - - - - - -
03/03:20am 26.4 SE 17 - 1009.2 - - - - - - - - -
03/03:00am 26.4 SE 18 21 1009.0 - - - - - - - - -
03/02:30am 26.6 SE 20 23 1009.1 - - - - - - - - -
03/02:20am 26.3 SE 18 - 1009.2 - - - - - - - - -
03/02:00am 26.5 ESE 19 22 1009.6 - - - - - - - - -
03/01:30am 26.5 ESE 19 22 1009.9 - - - - - - - - -
03/01:20am 26.8 SE 20 - 1009.9 - - - - - - - - -
03/01:00am 26.7 ESE 19 22 1010.1 - - - - - - - - -
03/12:30am 26.8 SE 19 22 1010.2 - - - - - - - - -
03/12:20am 26.9 ESE 20 - 1010.0 - - - - - - - - -
03/12:00am 26.8 ESE 18 21 1010.4 - - - - - - - - -
 
Date/Time
EST
Temp

°C
Wind Pressure Rain
since 9am
mm
Weather Cloud Vis
km
Sea
Height
m
Swell
Dir
 
Speed
knots
Gust
knots
hPa Trend Height
m
Period
s
Dir
02/11:30pm 26.9 ESE 18 21 1010.6 - - - - - - - - -
02/11:20pm 26.9 ESE 18 - 1010.6 - - - - - - - - -
02/11:00pm 26.8 SE 19 21 1010.5 - - - - - - - - -
02/10:30pm 27.0 ESE 20 22 1010.4 - - - - - - - - -
02/10:20pm 26.9 ESE 20 - 1010.2 - - - - - - - - -
02/10:00pm 26.9 SE 19 22 1010.4 - - - - - - - - -
02/09:30pm 26.9 SE 19 23 1010.5 - - - - - - - - -
02/09:20pm 27.0 SE 20 - 1010.4 - - - - - - - - -
02/09:00pm 26.9 SE 18 21 1010.4 - - - - - - - - -
02/08:30pm 26.9 SE 18 21 1010.0 - - - - - - - - -
02/08:20pm 27.1 SE 18 - 1009.8 - - - - - - - - -
02/08:00pm 26.9 ESE 16 19 1009.6 - - - - - - - - -
02/07:30pm 26.9 ESE 18 20 1008.9 - - - - - - - - -
02/07:20pm 26.9 SE 17 - 1008.9 - - - - - - - - -
02/07:00pm 27.0 SE 17 20 1008.6 - - - - - - - - -
02/06:30pm 27.0 SE 17 19 1008.5 - - - - - - - - -
02/06:20pm 27.0 SE 17 - 1008.4 - - - - - - - - -
02/06:00pm 26.7 SSE 13 15 1008.4 - - - - - - - - -
02/05:30pm 27.1 SE 16 18 1008.1 - - - - - - - - -
02/05:20pm 27.1 SE 16 - 1008.1 - - - - - - - - -
02/05:00pm 27.2 SE 15 17 1007.9 - - - - - - - - -
02/04:30pm 27.3 SSE 15 18 1007.7 - - - - - - - - -
02/04:20pm 27.2 SE 15 - 1007.7 - - - - - - - - -
02/04:00pm 27.2 SSE 15 17 1007.6 - - - - - - - - -
02/03:30pm 27.1 SSE 16 19 1007.6 - - - - - - - - -
02/03:20pm 27.2 SSE 15 - 1007.6 - - - - - - - - -
02/03:00pm 27.2 SSE 16 18 1007.7 - - - - - - - - -
02/02:30pm 27.1 SSE 16 19 1007.8 - - - - - - - - -
02/02:20pm 27.0 SSE 15 - 1007.8 - - - - - - - - -
02/02:00pm 27.1 SSE 15 17 1008.0 - - - - - - - - -
02/01:30pm 27.1 SSE 12 15 1008.5 - - - - - - - - -
02/01:20pm 27.0 SSE 12 - 1008.6 - - - - - - - - -
02/01:00pm 27.1 SSE 11 14 1008.9 - - - - - - - - -
02/12:30pm 27.0 SSE 11 14 1009.3 - - - - - - - - -
02/12:20pm 26.8 SSE 12 - 1009.4 - - - - - - - - -
02/12:00pm 26.8 SSE 11 13 1009.3 - - - - - - - - -
02/11:30am 26.8 SSE 10 13 1009.7 - - - - - - - - -
02/11:20am 26.9 SSE 11 - 1009.8 - - - - - - - - -
02/11:00am 26.7 SSE 11 14 1010.0 - - - - - - - - -
02/10:30am 26.6 SSE 10 13 1010.0 - - - - - - - - -
02/10:20am 26.8 SE 10 - 1009.9 - - - - - - - - -
02/10:00am 26.6 SSE 9 11 1010.1 - - - - - - - - -
02/09:30am 27.0 ESE 7 9 1010.1 - - - - - - - - -
02/09:20am 26.7 ESE 8 - 1010.0 - - - - - - - - -
02/09:00am 27.0 SE 7 9 1010.1 - - - - - - - - -
02/08:30am 27.0 ESE 6 8 1009.9 - - - - - - - - -
02/08:20am 26.8 SE 7 - 1009.7 - - - - - - - - -
02/08:00am 26.9 SE 6 7 1009.6 - - - - - - - - -
02/07:30am 27.0 SE 4 6 1009.1 - - - - - - - - -
02/07:20am 27.0 SE 4 - 1008.9 - - - - - - - - -
02/07:00am 26.7 SE 5 7 1008.8 - - - - - - - - -
02/06:30am 26.6 ESE 6 7 1008.5 - - - - - - - - -
02/06:20am 26.3 SE 6 - 1008.3 - - - - - - - - -
02/06:00am 26.0 SE 6 7 1008.0 - - - - - - - - -
02/05:30am 26.1 SE 4 5 1007.9 - - - - - - - - -
02/05:20am 26.1 ESE 5 - 1007.9 - - - - - - - - -
02/05:00am 26.2 ESE 5 7 1007.7 - - - - - - - - -
02/04:30am 26.2 E 4 5 1007.5 - - - - - - - - -
02/04:20am 26.2 ESE 5 - 1007.5 - - - - - - - - -
02/04:00am 26.2 ESE 4 5 1007.5 - - - - - - - - -
02/03:30am 26.1 E 4 5 1007.4 - - - - - - - - -
02/03:20am 26.2 E 5 - 1007.6 - - - - - - - - -
02/03:00am 26.2 E 5 7 1007.7 - - - - - - - - -
02/02:30am 26.3 ESE 6 8 1007.6 - - - - - - - - -
02/02:20am 26.3 ESE 5 - 1007.8 - - - - - - - - -
02/02:00am 26.4 E 5 7 1008.1 - - - - - - - - -
02/01:30am 26.3 E 6 8 1008.3 - - - - - - - - -
02/01:20am 26.4 E 6 - 1008.5 - - - - - - - - -
02/01:00am 26.4 E 7 8 1008.8 - - - - - - - - -
02/12:30am 26.4 E 6 7 1009.1 - - - - - - - - -
02/12:20am 26.3 E 7 - 1009.2 - - - - - - - - -
02/12:00am 26.3 E 9 10 1009.1 - - - - - - - - -
 
Date/Time
EST
Temp

°C
Wind Pressure Rain
since 9am
mm
Weather Cloud Vis
km
Sea
Height
m
Swell
Dir
 
Speed
knots
Gust
knots
hPa Trend Height
m
Period
s
Dir
01/11:30pm 26.4 E 9 10 1009.3 - - - - - - - - -
01/11:20pm 26.4 E 9 - 1009.4 - - - - - - - - -
01/11:00pm 26.5 E 9 11 1009.5 - - - - - - - - -
01/10:30pm 26.4 E 10 11 1009.6 - - - - - - - - -
01/10:20pm 26.4 E 10 - 1009.5 - - - - - - - - -
01/10:00pm 26.6 E 9 11 1009.7 - - - - - - - - -
01/09:30pm 26.7 E 10 12 1009.3 - - - - - - - - -
01/09:20pm 26.6 E 10 - 1009.3 - - - - - - - - -
01/09:00pm 26.8 E 10 12 1009.3 - - - - - - - - -
01/08:30pm 26.8 E 9 11 1009.0 - - - - - - - - -
01/08:20pm 26.8 E 9 - 1008.9 - - - - - - - - -
01/08:00pm 26.7 E 9 11 1008.6 - - - - - - - - -
01/07:30pm 26.6 ESE 10 11 1008.3 - - - - - - - - -
01/07:20pm 26.6 SE 10 - 1008.3 - - - - - - - - -
01/07:00pm 26.8 SE 10 12 1007.9 - - - - - - - - -
01/06:30pm 26.9 SE 10 11 1007.5 - - - - - - - - -
01/06:20pm 26.7 SE 9 - 1007.3 - - - - - - - - -
01/06:00pm 26.9 SE 8 10 1007.4 - - - - - - - - -
01/05:30pm 26.9 SE 8 9 1007.4 - - - - - - - - -
01/05:20pm 26.8 SE 8 - 1007.4 - - - - - - - - -
01/05:00pm 26.8 SE 8 11 1007.3 - - - - - - - - -
01/04:30pm 27.0 SE 9 11 1007.3 - - - - - - - - -
01/04:20pm 27.0 SE 9 - 1007.4 - - - - - - - - -
01/04:00pm 27.2 SE 8 11 1007.1 - - - - - - - - -
01/03:30pm 27.2 SE 8 10 1007.2 - - - - - - - - -
01/03:20pm 27.0 SE 8 - 1007.2 - - - - - - - - -
01/03:00pm 27.3 SE 9 10 1007.2 - - - - - - - - -
01/02:30pm 27.3 SE 8 10 1007.3 - - - - - - - - -
01/02:20pm 27.5 SE 8 - 1007.4 - - - - - - - - -
01/02:00pm 27.2 SE 8 10 1007.5 - - - - - - - - -
01/01:30pm 27.3 SE 7 9 1007.8 - - - - - - - - -
01/01:20pm 27.0 SE 7 - 1007.8 - - - - - - - - -
01/01:00pm 27.1 SE 7 9 1008.1 - - - - - - - - -
01/12:30pm 26.9 SE 7 8 1008.4 - - - - - - - - -
01/12:20pm 26.9 SE 7 - 1008.5 - - - - - - - - -
01/12:00pm 26.9 SE 6 8 1008.8 - - - - - - - - -
01/11:30am 26.9 SE 7 9 1009.3 - - - - - - - - -
01/11:20am 26.9 SE 6 - 1009.2 - - - - - - - - -
01/11:00am 27.2 SE 6 8 1009.3 - - - - - - - - -
01/10:30am 27.0 SE 6 8 1009.7 - - - - - - - - -
01/10:20am 27.0 SE 6 - 1009.6 - - - - - - - - -
01/10:00am 26.9 SE 6 8 1009.8 - - - - - - - - -
01/09:30am 27.2 SE 5 7 1009.8 - - - - - - - - -
01/09:20am 27.0 SE 5 - 1009.5 - - - - - - - - -
01/09:00am 27.0 SE 6 7 1009.5 - - - - - - - - -
01/08:30am 26.9 SE 6 7 1009.3 - - - - - - - - -
01/08:20am 26.9 SE 6 - 1009.2 - - - - - - - - -
01/08:00am 26.8 ESE 6 8 1008.9 - - - - - - - - -
01/07:30am 26.4 ESE 3 5 1008.6 - - - - - - - - -
01/07:20am 26.3 ESE 4 - 1008.4 - - - - - - - - -
01/07:00am 26.3 ESE 5 6 1008.1 - - - - - - - - -
01/06:30am 26.3 ESE 5 7 1007.6 - - - - - - - - -
01/06:20am 26.3 ESE 6 - 1007.6 - - - - - - - - -
01/06:00am 26.2 ESE 6 9 1007.6 - - - - - - - - -
01/05:30am 26.2 ESE 7 9 1007.3 - - - - - - - - -
01/05:20am 26.3 ESE 8 - 1007.3 - - - - - - - - -
01/05:00am 26.2 ESE 8 9 1007.1 - - - - - - - - -
01/04:30am 26.2 ESE 6 7 1007.2 - - - - - - - - -
01/04:20am 26.3 ESE 6 - 1007.3 - - - - - - - - -
01/04:00am 26.3 ESE 6 8 1007.4 - - - - - - - - -
01/03:30am 26.3 ESE 7 8 1007.4 - - - - - - - - -
01/03:20am 26.3 ESE 7 - 1007.4 - - - - - - - - -
01/03:00am 26.3 ESE 6 7 1007.4 - - - - - - - - -
01/02:30am 26.3 ESE 7 9 1007.4 - - - - - - - - -
01/02:20am 26.3 ESE 7 - 1007.4 - - - - - - - - -
01/02:00am 26.3 ESE 8 11 1007.6 - - - - - - - - -
01/01:30am 26.5 ESE 9 10 1007.9 - - - - - - - - -
01/01:20am 26.4 ESE 8 - 1008.1 - - - - - - - - -
01/01:00am 26.5 ESE 9 11 1008.4 - - - - - - - - -
01/12:30am 26.6 E 9 10 1008.8 - - - - - - - - -
01/12:20am 26.6 E 9 - 1009.0 - - - - - - - - -
01/12:00am 26.6 E 10 11 1009.1 - - - - - - - - -
 
Date/Time
EST
Temp

°C
Wind Pressure Rain
since 9am
mm
Weather Cloud Vis
km
Sea
Height
m
Swell
Dir
 
Speed
knots
Gust
knots
hPa Trend Height
m
Period
s
Dir
28/11:30pm 26.7 E 10 11 1009.3 - - - - - - - - -
28/11:20pm 26.7 ESE 10 - 1009.2 - - - - - - - - -
28/11:00pm 26.8 ESE 11 13 1009.1 - - - - - - - - -
28/10:30pm 26.9 ESE 12 15 1009.1 - - - - - - - - -
28/10:20pm 26.8 ESE 13 - 1009.2 - - - - - - - - -
28/10:00pm 26.9 ESE 13 15 1009.1 - - - - - - - - -
28/09:30pm 27.1 ESE 13 15 1009.1 - - - - - - - - -
28/09:20pm 26.9 ESE 13 - 1009.0 - - - - - - - - -
28/09:00pm 27.0 ESE 12 14 1008.9 - - - - - - - - -
28/08:30pm 27.0 ESE 12 14 1008.8 - - - - - - - - -
28/08:20pm 26.9 ESE 11 - 1008.8 - - - - - - - - -
28/08:00pm 26.9 ESE 11 13 1008.7 - - - - - - - - -
28/07:30pm 26.9 ESE 11 13 1008.3 - - - - - - - - -
28/07:20pm 26.9 ESE 12 - 1008.1 - - - - - - - - -

Other Formats:

Comma delimited format used in spreadsheet applications
http://www.bom.gov.au/fwo/IDQ60701/IDQ60701.94371.axf

JavaScript Object Notation format (JSON) in row-major order
http://www.bom.gov.au/fwo/IDQ60701/IDQ60701.94371.json